Time;durP1;ratioP1;P1;durP2;ratioP2;P2;SDS_P1;SDS_P2;PMS_P1;PMS_P2;Temp;Humidity;BMP_temperature;BMP_pressure;BME280_temperature;BME280_humidity;BME280_pressure;Samples;Min_cycle;Max_cycle;Signal;HPM_P1;HPM_P2
2022/09/15 00:02:11;;;;;;;0.70;0.55;;;21.60;59.30;;;;;;6214597;28;20557;-72
2022/09/15 00:05:12;;;;;;;0.60;0.40;;;21.60;59.20;;;;;;6214263;28;20026;-72
2022/09/15 00:08:13;;;;;;;0.68;0.50;;;21.60;59.10;;;;;;6214589;28;20041;-72
2022/09/15 00:11:23;;;;;;;0.60;0.45;;;21.60;59.20;;;;;;6214469;28;20124;-72
2022/09/15 00:14:23;;;;;;;0.73;0.45;;;21.60;59.10;;;;;;6213582;28;20022;-72
2022/09/15 00:17:25;;;;;;;1.20;0.63;;;21.60;59.10;;;;;;6214849;28;20021;-73
2022/09/15 00:20:25;;;;;;;0.43;0.43;;;21.60;59.10;;;;;;6214488;28;20068;-72
2022/09/15 00:23:26;;;;;;;0.70;0.50;;;21.60;59.20;;;;;;6214039;28;20026;-72
2022/09/15 00:26:28;;;;;;;1.35;0.57;;;21.60;59.80;;;;;;6214904;28;20476;-72
2022/09/15 00:29:29;;;;;;;0.60;0.40;;;21.60;59.00;;;;;;6220296;28;20416;-72
2022/09/15 00:32:30;;;;;;;0.60;0.52;;;21.60;59.10;;;;;;6214227;28;20037;-72
2022/09/15 00:35:30;;;;;;;0.30;0.30;;;21.60;59.30;;;;;;6213749;28;20044;-72
2022/09/15 00:38:32;;;;;;;0.95;0.65;;;21.60;59.10;;;;;;6214360;28;20621;-72
2022/09/15 00:41:33;;;;;;;1.23;0.60;;;21.60;59.10;;;;;;6214515;28;20042;-72
2022/09/15 00:44:52;;;;;;;0.98;0.60;;;21.60;59.20;;;;;;6213404;28;20065;-72
2022/09/15 00:47:53;;;;;;;1.02;0.43;;;21.60;59.20;;;;;;6213889;28;20026;-72
2022/09/15 00:50:56;;;;;;;0.55;0.45;;;21.60;59.10;;;;;;6215095;28;20029;-72
2022/09/15 00:53:59;;;;;;;0.35;0.35;;;21.60;59.90;;;;;;6220178;28;20056;-72
2022/09/15 00:57:05;;;;;;;0.40;0.38;;;21.60;59.20;;;;;;6214863;28;20050;-72
2022/09/15 01:00:10;;;;;;;0.70;0.52;;;21.60;59.20;;;;;;6214467;28;20071;-72
2022/09/15 01:03:11;;;;;;;0.70;0.60;;;21.60;59.10;;;;;;6214582;28;20052;-72
2022/09/15 01:06:18;;;;;;;0.40;0.40;;;21.60;59.10;;;;;;6213875;28;20026;-72
2022/09/15 01:09:28;;;;;;;0.65;0.40;;;21.60;59.10;;;;;;6217454;28;20026;-72
2022/09/15 01:12:29;;;;;;;0.80;0.45;;;21.60;59.10;;;;;;6213597;28;20018;-72
2022/09/15 01:15:48;;;;;;;0.50;0.40;;;21.60;59.10;;;;;;6213766;28;20038;-72
2022/09/15 01:18:57;;;;;;;0.60;0.50;;;21.60;59.10;;;;;;6214826;28;20476;-72
2022/09/15 01:22:16;;;;;;;0.57;0.40;;;21.60;59.20;;;;;;6214858;28;20527;-72
2022/09/15 01:25:48;;;;;;;0.85;0.50;;;21.60;59.20;;;;;;6191624;28;20398;-72
2022/09/15 01:29:35;;;;;;;0.75;0.50;;;21.60;59.00;;;;;;6215067;28;20488;-72
2022/09/15 01:33:11;;;;;;;0.75;0.47;;;21.60;59.10;;;;;;6217448;28;20428;-72
2022/09/15 01:36:19;;;;;;;0.40;0.40;;;21.60;59.00;;;;;;6217539;28;20034;-72
2022/09/15 01:39:24;;;;;;;1.35;0.60;;;21.60;59.00;;;;;;6217037;28;20067;-72
2022/09/15 01:42:27;;;;;;;0.32;0.32;;;21.60;59.20;;;;;;6217805;28;20071;-72
2022/09/15 01:45:33;;;;;;;0.55;0.50;;;21.60;59.10;;;;;;6218254;28;20044;-72
2022/09/15 01:48:35;;;;;;;0.63;0.57;;;21.60;59.10;;;;;;6218916;28;20520;-72
2022/09/15 01:51:37;;;;;;;1.08;0.55;;;21.60;59.10;;;;;;6218890;28;20059;-72
2022/09/15 01:54:44;;;;;;;1.13;0.50;;;21.60;59.10;;;;;;6218197;28;20128;-72
2022/09/15 01:57:45;;;;;;;0.50;0.40;;;21.60;59.20;;;;;;6217914;28;20026;-72
2022/09/15 02:00:52;;;;;;;0.55;0.45;;;21.60;59.30;;;;;;6217160;28;20034;-72
2022/09/15 02:04:02;;;;;;;1.48;0.55;;;21.60;59.30;;;;;;6216596;28;20022;-72
2022/09/15 02:07:34;;;;;;;0.63;0.50;;;21.60;59.40;;;;;;6217297;28;20470;-72
2022/09/15 02:10:41;;;;;;;1.05;0.68;;;21.60;59.10;;;;;;6224552;28;20032;-72
2022/09/15 02:13:47;;;;;;;0.52;0.40;;;21.60;59.30;;;;;;6216537;28;20112;-72
2022/09/15 02:16:51;;;;;;;0.50;0.40;;;21.60;59.40;;;;;;6218184;28;20105;-72
2022/09/15 02:20:02;;;;;;;0.68;0.57;;;21.60;60.00;;;;;;6218213;28;20040;-72
2022/09/15 02:23:14;;;;;;;0.93;0.60;;;21.60;59.30;;;;;;6218143;28;20026;-73
2022/09/15 02:26:19;;;;;;;0.50;0.43;;;21.60;59.10;;;;;;6206092;28;20046;-72
2022/09/15 02:29:22;;;;;;;0.43;0.40;;;21.60;59.30;;;;;;6197952;28;20070;-72
2022/09/15 02:32:26;;;;;;;0.95;0.50;;;21.60;59.20;;;;;;6216524;28;20030;-72
2022/09/15 02:35:30;;;;;;;1.08;0.60;;;21.60;59.10;;;;;;6214841;28;20033;-72
2022/09/15 02:38:37;;;;;;;0.70;0.60;;;21.60;59.40;;;;;;6216082;28;20022;-72
2022/09/15 02:41:39;;;;;;;0.40;0.40;;;21.60;59.30;;;;;;6216010;28;20052;-72
2022/09/15 02:44:40;;;;;;;0.52;0.40;;;21.60;59.20;;;;;;6215843;28;20083;-72
2022/09/15 02:47:40;;;;;;;1.63;0.50;;;21.60;59.20;;;;;;6215872;28;20022;-72
2022/09/15 02:50:41;;;;;;;0.57;0.50;;;21.60;59.20;;;;;;6216090;28;20660;-72
2022/09/15 02:53:43;;;;;;;0.60;0.50;;;21.60;59.20;;;;;;6216223;28;20105;-72
2022/09/15 02:56:44;;;;;;;0.40;0.40;;;21.60;59.30;;;;;;6215994;28;20137;-72
2022/09/15 03:03:03;;;;;;;1.60;0.50;;;21.60;59.00;;;;;;6215710;28;20022;-72
2022/09/15 03:06:16;;;;;;;0.77;0.60;;;21.60;59.00;;;;;;6215442;28;20378;-72
2022/09/15 03:09:17;;;;;;;1.15;0.40;;;21.60;59.10;;;;;;6215129;28;20022;-72
2022/09/15 03:12:18;;;;;;;1.13;0.60;;;21.60;59.20;;;;;;6215720;28;20453;-72
2022/09/15 03:15:21;;;;;;;1.60;0.47;;;21.60;59.20;;;;;;6214482;28;20032;-72
2022/09/15 03:18:22;;;;;;;0.40;0.40;;;21.60;59.30;;;;;;6215472;28;20026;-72
2022/09/15 03:21:22;;;;;;;0.52;0.40;;;21.60;59.20;;;;;;6215224;28;20041;-72
2022/09/15 03:24:23;;;;;;;0.43;0.40;;;21.60;59.30;;;;;;6215101;28;20029;-72
2022/09/15 03:27:24;;;;;;;0.38;0.38;;;21.60;59.50;;;;;;6215109;28;20041;-72
2022/09/15 03:30:25;;;;;;;0.40;0.40;;;21.60;59.10;;;;;;6214898;28;20155;-72
2022/09/15 03:33:26;;;;;;;0.40;0.40;;;21.60;59.10;;;;;;6215414;28;20029;-72
2022/09/15 03:36:26;;;;;;;0.70;0.50;;;21.60;59.10;;;;;;6215432;28;20030;-72
2022/09/15 03:39:27;;;;;;;0.75;0.45;;;21.60;59.10;;;;;;6216535;28;20086;-72
2022/09/15 03:42:28;;;;;;;0.63;0.50;;;21.60;59.30;;;;;;6215149;28;20040;-72
2022/09/15 03:45:28;;;;;;;1.23;0.55;;;21.60;59.30;;;;;;6214513;28;20120;-72
2022/09/15 03:48:32;;;;;;;0.60;0.32;;;21.60;59.10;;;;;;6214687;28;20436;-72
2022/09/15 03:51:32;;;;;;;0.60;0.50;;;21.60;59.20;;;;;;6214975;28;20030;-72
2022/09/15 03:54:34;;;;;;;0.63;0.30;;;21.60;59.00;;;;;;6214670;28;20018;-72
2022/09/15 03:57:34;;;;;;;0.80;0.55;;;21.60;59.10;;;;;;6215939;28;20159;-72
2022/09/15 04:00:35;;;;;;;0.50;0.40;;;21.60;59.10;;;;;;6214054;28;20034;-72
2022/09/15 04:03:36;;;;;;;0.38;0.35;;;21.60;59.10;;;;;;6216346;28;20037;-72
2022/09/15 04:06:36;;;;;;;1.23;0.50;;;21.60;59.20;;;;;;6214596;28;20117;-72
2022/09/15 04:09:37;;;;;;;0.82;0.50;;;21.60;59.10;;;;;;6214037;28;20477;-72
2022/09/15 04:12:38;;;;;;;1.40;0.60;;;21.60;59.20;;;;;;6213342;28;20044;-72
2022/09/15 04:15:38;;;;;;;0.50;0.40;;;21.60;59.00;;;;;;6214225;28;20391;-72
2022/09/15 04:18:39;;;;;;;0.80;0.50;;;21.60;59.10;;;;;;6214410;28;20030;-72
2022/09/15 04:21:40;;;;;;;0.80;0.50;;;21.60;59.10;;;;;;6214019;28;20404;-72
2022/09/15 04:24:41;;;;;;;0.73;0.43;;;21.60;59.00;;;;;;6214247;28;20049;-72
2022/09/15 04:27:41;;;;;;;0.77;0.50;;;21.60;59.20;;;;;;6214295;28;20029;-72
2022/09/15 04:30:42;;;;;;;0.60;0.50;;;21.60;59.00;;;;;;6214450;28;20079;-72
2022/09/15 04:33:43;;;;;;;0.63;0.50;;;21.60;59.10;;;;;;6214668;28;20030;-72
2022/09/15 04:36:45;;;;;;;0.43;0.43;;;21.60;59.50;;;;;;6215341;28;20070;-72
2022/09/15 04:39:46;;;;;;;0.40;0.40;;;21.60;59.00;;;;;;6215734;28;20034;-72
2022/09/15 04:42:47;;;;;;;2.45;0.50;;;21.60;59.00;;;;;;6221195;28;20079;-72
2022/09/15 04:45:48;;;;;;;0.50;0.40;;;21.60;59.20;;;;;;6215215;28;20018;-72
2022/09/15 04:48:48;;;;;;;1.40;0.40;;;21.60;59.20;;;;;;6215336;28;20026;-72
2022/09/15 04:51:52;;;;;;;0.55;0.30;;;21.50;59.20;;;;;;6214256;28;20049;-72
2022/09/15 04:54:53;;;;;;;0.40;0.35;;;21.60;59.10;;;;;;6213360;28;20030;-72
2022/09/15 04:57:54;;;;;;;0.50;0.50;;;21.60;59.10;;;;;;6213547;28;20026;-72
2022/09/15 05:00:54;;;;;;;0.75;0.40;;;21.60;59.00;;;;;;6216292;28;20176;-72
2022/09/15 05:03:56;;;;;;;0.50;0.40;;;21.50;59.20;;;;;;6193450;28;20104;-72
2022/09/15 05:06:56;;;;;;;0.75;0.40;;;21.60;59.50;;;;;;6193623;28;20034;-72
2022/09/15 05:09:57;;;;;;;0.80;0.40;;;21.50;59.50;;;;;;6193541;28;20261;-72
2022/09/15 05:12:58;;;;;;;1.63;0.50;;;21.60;59.80;;;;;;6210555;28;20382;-72
2022/09/15 05:16:11;;;;;;;0.40;0.40;;;21.60;59.20;;;;;;6217496;28;20262;-72
2022/09/15 05:19:11;;;;;;;0.40;0.40;;;21.60;59.50;;;;;;6218739;28;20700;-72
2022/09/15 05:22:12;;;;;;;0.30;0.30;;;21.60;59.50;;;;;;6217521;28;20038;-72
2022/09/15 05:25:13;;;;;;;0.57;0.40;;;21.60;59.50;;;;;;6216275;28;20037;-72
2022/09/15 05:28:13;;;;;;;0.95;0.40;;;21.50;59.30;;;;;;6217580;28;20432;-72
2022/09/15 05:31:21;;;;;;;0.50;0.50;;;21.60;59.50;;;;;;6223467;28;20099;-72
2022/09/15 05:34:22;;;;;;;0.90;0.50;;;21.60;59.50;;;;;;6217249;28;20041;-72
2022/09/15 05:37:22;;;;;;;0.75;0.40;;;21.60;59.50;;;;;;6217537;28;20037;-72
2022/09/15 05:40:23;;;;;;;0.93;0.50;;;21.60;59.30;;;;;;6217159;28;20030;-72
2022/09/15 05:43:23;;;;;;;0.47;0.40;;;21.60;59.40;;;;;;6217162;28;20454;-72
2022/09/15 05:46:25;;;;;;;2.15;0.60;;;21.60;59.40;;;;;;6217184;28;20056;-72
2022/09/15 05:49:28;;;;;;;0.50;0.50;;;21.60;59.60;;;;;;6217229;28;20516;-72
2022/09/15 05:52:28;;;;;;;1.17;0.40;;;21.60;59.60;;;;;;6216824;28;20048;-72
2022/09/15 05:55:29;;;;;;;0.40;0.40;;;21.60;59.70;;;;;;6217377;28;20022;-72
2022/09/15 05:58:30;;;;;;;1.23;0.30;;;21.60;59.70;;;;;;6223682;28;20345;-72
2022/09/15 06:01:31;;;;;;;1.02;0.47;;;21.60;59.50;;;;;;6209036;28;20046;-72
2022/09/15 06:04:33;;;;;;;0.57;0.40;;;21.50;59.70;;;;;;6219410;28;20495;-73
2022/09/15 06:07:33;;;;;;;0.85;0.50;;;21.50;59.70;;;;;;6220112;28;20053;-73
2022/09/15 06:10:34;;;;;;;0.50;0.47;;;21.50;59.70;;;;;;6218991;28;20026;-72
2022/09/15 06:13:35;;;;;;;0.90;0.40;;;21.50;59.50;;;;;;6220332;28;20025;-72
2022/09/15 06:16:36;;;;;;;0.90;0.60;;;21.50;59.20;;;;;;6220208;28;20097;-72
2022/09/15 06:19:36;;;;;;;0.60;0.50;;;21.60;59.50;;;;;;6220259;28;20529;-72
2022/09/15 06:22:37;;;;;;;0.73;0.47;;;21.50;59.60;;;;;;6219846;28;20034;-72
2022/09/15 06:25:38;;;;;;;0.73;0.52;;;21.50;59.30;;;;;;6220002;28;20022;-72
2022/09/15 06:28:41;;;;;;;0.80;0.60;;;21.60;59.60;;;;;;6219773;28;20396;-74
2022/09/15 06:31:41;;;;;;;1.25;0.63;;;21.50;59.70;;;;;;6219826;28;20022;-72
2022/09/15 06:34:42;;;;;;;1.50;0.50;;;21.50;59.30;;;;;;6219465;28;20160;-72
2022/09/15 06:37:42;;;;;;;0.70;0.50;;;21.50;59.50;;;;;;6219678;28;20033;-72
2022/09/15 06:40:44;;;;;;;0.57;0.50;;;21.50;59.80;;;;;;6220206;28;20041;-72
2022/09/15 06:43:45;;;;;;;0.70;0.50;;;21.50;59.50;;;;;;6217613;28;20150;-72
2022/09/15 06:46:46;;;;;;;0.85;0.57;;;21.50;59.60;;;;;;6219899;28;20113;-72
2022/09/15 06:49:47;;;;;;;1.25;0.70;;;21.50;59.50;;;;;;6219727;28;20025;-72
2022/09/15 06:52:48;;;;;;;0.98;0.60;;;21.50;59.00;;;;;;6219903;28;20101;-73
2022/09/15 06:55:49;;;;;;;0.93;0.70;;;21.60;59.20;;;;;;6219538;28;20022;-72
2022/09/15 06:58:50;;;;;;;0.50;0.50;;;21.60;59.40;;;;;;6219656;28;20105;-72
2022/09/15 07:01:54;;;;;;;0.75;0.50;;;21.60;59.10;;;;;;6217887;28;20117;-72
2022/09/15 07:04:54;;;;;;;0.85;0.60;;;21.60;58.90;;;;;;6219639;28;20022;-72
2022/09/15 07:07:55;;;;;;;2.75;0.75;;;21.60;59.10;;;;;;6218670;28;20030;-72
2022/09/15 07:10:56;;;;;;;1.30;0.80;;;21.60;59.30;;;;;;6217319;28;20112;-72
2022/09/15 07:13:57;;;;;;;0.63;0.50;;;21.60;59.00;;;;;;6216586;28;20022;-72
2022/09/15 07:16:57;;;;;;;0.80;0.60;;;21.60;59.00;;;;;;6218637;28;20127;-72
2022/09/15 07:19:59;;;;;;;0.45;0.40;;;21.60;58.90;;;;;;6217875;28;20512;-72
2022/09/15 07:23:00;;;;;;;1.13;0.70;;;21.60;58.90;;;;;;6218412;28;20065;-72
2022/09/15 07:26:24;;;;;;;0.73;0.43;;;21.60;59.10;;;;;;6217498;28;20650;-72
2022/09/15 07:29:25;;;;;;;0.98;0.63;;;21.60;59.10;;;;;;6219016;28;20035;-72
2022/09/15 07:32:25;;;;;;;1.05;0.55;;;21.60;59.00;;;;;;6219148;28;20040;-72
2022/09/15 07:35:26;;;;;;;1.15;0.68;;;21.60;59.50;;;;;;6218485;28;20018;-72
2022/09/15 07:38:27;;;;;;;0.85;0.50;;;21.60;59.20;;;;;;6219031;28;20026;-72
2022/09/15 07:41:29;;;;;;;0.63;0.50;;;21.60;59.40;;;;;;6218599;28;20034;-72
2022/09/15 07:44:30;;;;;;;1.02;0.60;;;21.60;59.20;;;;;;6218698;28;20084;-72
2022/09/15 07:47:30;;;;;;;0.73;0.50;;;21.60;59.00;;;;;;6224696;28;20022;-72
2022/09/15 07:50:31;;;;;;;1.48;0.80;;;21.50;59.00;;;;;;6218580;28;20030;-72
2022/09/15 07:53:32;;;;;;;1.00;0.63;;;21.60;59.20;;;;;;6218230;28;20026;-72
2022/09/15 07:56:32;;;;;;;0.82;0.50;;;21.60;59.10;;;;;;6218758;28;20121;-72
2022/09/15 07:59:33;;;;;;;0.88;0.43;;;21.60;59.20;;;;;;6218234;28;20017;-72
2022/09/15 08:02:34;;;;;;;0.70;0.50;;;21.60;59.10;;;;;;6218503;28;20030;-72
2022/09/15 08:05:34;;;;;;;0.75;0.60;;;21.60;59.00;;;;;;6217289;28;20021;-72
2022/09/15 08:08:39;;;;;;;0.90;0.65;;;21.60;59.40;;;;;;6217982;28;20033;-72
2022/09/15 08:11:43;;;;;;;0.50;0.50;;;21.50;59.40;;;;;;6217295;28;20524;-72
2022/09/15 08:14:44;;;;;;;0.60;0.52;;;21.50;59.50;;;;;;6218122;28;20026;-72
2022/09/15 08:17:45;;;;;;;0.45;0.40;;;21.50;59.40;;;;;;6217989;28;20515;-72
2022/09/15 08:20:46;;;;;;;0.60;0.50;;;21.50;59.20;;;;;;6217958;28;20376;-72
2022/09/15 08:23:54;;;;;;;0.77;0.60;;;21.50;59.10;;;;;;6217673;28;20030;-72
2022/09/15 08:26:55;;;;;;;0.75;0.47;;;21.50;59.00;;;;;;6216641;28;20038;-72
2022/09/15 08:29:56;;;;;;;0.75;0.52;;;21.60;59.00;;;;;;6224096;28;20060;-72
2022/09/15 08:32:56;;;;;;;1.10;0.77;;;21.60;58.90;;;;;;6217957;28;20105;-72
2022/09/15 08:36:06;;;;;;;1.52;0.77;;;21.60;58.80;;;;;;6220224;28;20480;-72
2022/09/15 08:39:07;;;;;;;0.63;0.50;;;21.60;59.00;;;;;;6222069;28;20026;-72
2022/09/15 08:42:16;;;;;;;0.95;0.63;;;21.60;59.00;;;;;;6221998;28;20033;-72
2022/09/15 08:45:28;;;;;;;0.52;0.40;;;21.50;59.00;;;;;;6221933;28;20135;-73
2022/09/15 08:48:42;;;;;;;1.15;0.60;;;21.60;59.30;;;;;;6221870;28;20026;-72
2022/09/15 08:51:50;;;;;;;0.50;0.40;;;21.60;59.30;;;;;;6221985;28;20053;-72
2022/09/15 08:54:52;;;;;;;1.65;0.63;;;21.50;59.00;;;;;;6221715;28;20030;-72
2022/09/15 08:57:53;;;;;;;1.05;0.50;;;21.60;59.20;;;;;;6221815;28;20357;-72
2022/09/15 09:01:36;;;;;;;0.68;0.50;;;21.60;59.10;;;;;;6221523;28;20045;-72
2022/09/15 09:05:09;;;;;;;0.93;0.70;;;21.60;59.40;;;;;;6230058;28;20038;-72
2022/09/15 09:08:18;;;;;;;0.52;0.50;;;21.60;59.00;;;;;;6197451;28;20036;-72
2022/09/15 09:11:44;;;;;;;1.58;0.63;;;21.50;59.10;;;;;;6209454;28;20022;-72
2022/09/15 09:15:35;;;;;;;0.85;0.35;;;21.60;59.10;;;;;;6221517;28;20030;-72
2022/09/15 09:19:02;;;;;;;0.90;0.40;;;21.60;59.10;;;;;;6218862;28;20035;-72
2022/09/15 09:22:12;;;;;;;0.80;0.55;;;21.60;59.40;;;;;;6213775;28;20400;-72
2022/09/15 09:25:18;;;;;;;1.30;0.70;;;21.50;59.50;;;;;;6221076;28;20589;-72
2022/09/15 09:28:39;;;;;;;1.08;0.60;;;21.50;59.10;;;;;;6220908;28;20100;-72
2022/09/15 09:31:40;;;;;;;1.33;0.60;;;21.50;59.50;;;;;;6221339;28;20076;-72
2022/09/15 09:35:03;;;;;;;1.23;0.55;;;21.50;59.30;;;;;;6221072;28;20025;-72
2022/09/15 09:38:04;;;;;;;0.75;0.50;;;21.50;59.30;;;;;;6220878;28;20078;-72
2022/09/15 09:41:13;;;;;;;0.57;0.50;;;21.50;59.00;;;;;;6221006;28;20373;-72
2022/09/15 09:44:14;;;;;;;0.73;0.40;;;21.50;59.10;;;;;;6219306;28;20085;-72
2022/09/15 09:47:15;;;;;;;0.75;0.50;;;21.60;59.00;;;;;;6220725;28;20058;-72
2022/09/15 09:50:31;;;;;;;2.00;0.60;;;21.60;58.80;;;;;;6220758;28;20048;-72
2022/09/15 09:53:32;;;;;;;0.63;0.52;;;21.60;58.50;;;;;;6195972;28;20034;-72
2022/09/15 09:56:33;;;;;;;1.13;0.60;;;21.60;58.80;;;;;;6204261;28;20472;-72
2022/09/15 09:59:42;;;;;;;1.40;0.40;;;21.60;58.70;;;;;;6219449;28;20109;-72
2022/09/15 10:02:46;;;;;;;1.02;0.50;;;21.60;58.60;;;;;;6220657;28;20147;-72
2022/09/15 10:06:09;;;;;;;1.20;0.68;;;21.60;58.60;;;;;;6220191;28;20057;-72
2022/09/15 10:09:16;;;;;;;1.65;0.60;;;21.60;58.70;;;;;;6220257;28;20018;-72
2022/09/15 10:12:23;;;;;;;0.55;0.55;;;21.50;58.50;;;;;;6220624;28;20015;-72
2022/09/15 10:15:30;;;;;;;0.50;0.50;;;21.60;58.70;;;;;;6220438;28;20068;-72
2022/09/15 10:18:37;;;;;;;0.73;0.60;;;21.60;58.70;;;;;;6220271;28;20034;-72
2022/09/15 10:21:38;;;;;;;1.08;0.70;;;21.60;58.90;;;;;;6220275;28;20026;-72
2022/09/15 10:24:39;;;;;;;1.75;0.70;;;21.60;58.80;;;;;;6218459;28;20046;-72
2022/09/15 10:27:40;;;;;;;1.33;0.55;;;21.60;58.90;;;;;;6220188;28;20032;-72
2022/09/15 10:31:02;;;;;;;0.82;0.43;;;21.60;59.00;;;;;;6220069;28;20370;-72
2022/09/15 10:34:24;;;;;;;0.70;0.60;;;21.60;58.90;;;;;;6219830;28;20029;-72
2022/09/15 10:37:51;;;;;;;1.02;0.35;;;21.60;59.00;;;;;;6219909;28;20026;-72
2022/09/15 10:41:12;;;;;;;1.52;0.60;;;21.50;58.90;;;;;;6221741;28;20130;-72
2022/09/15 10:44:57;;;;;;;0.47;0.40;;;21.60;58.80;;;;;;6222868;28;20063;-72
2022/09/15 10:48:24;;;;;;;0.95;0.57;;;21.60;58.80;;;;;;6257828;28;20029;-72
2022/09/15 10:51:31;;;;;;;1.38;0.60;;;21.60;58.80;;;;;;6259798;28;20135;-73
2022/09/15 10:54:39;;;;;;;1.05;0.50;;;21.60;58.80;;;;;;6195556;28;20030;-72
2022/09/15 10:57:42;;;;;;;0.88;0.55;;;21.60;59.00;;;;;;6203318;28;20354;-72
2022/09/15 11:01:19;;;;;;;0.40;0.40;;;21.60;58.90;;;;;;6218870;28;20046;-72
2022/09/15 11:04:36;;;;;;;0.88;0.38;;;21.60;58.80;;;;;;6243449;28;20045;-72
2022/09/15 11:07:54;;;;;;;2.22;0.60;;;21.60;58.60;;;;;;6225895;28;20048;-72
2022/09/15 11:11:34;;;;;;;0.63;0.57;;;21.60;58.70;;;;;;6219641;28;20026;-72
2022/09/15 11:15:01;;;;;;;1.25;0.50;;;21.60;59.00;;;;;;6217320;28;20026;-72
2022/09/15 11:18:24;;;;;;;0.52;0.50;;;21.60;59.00;;;;;;6218055;28;20033;-72
2022/09/15 11:21:33;;;;;;;0.60;0.50;;;21.60;58.80;;;;;;6218789;28;20038;-72
2022/09/15 11:24:57;;;;;;;0.70;0.50;;;21.60;58.80;;;;;;6219001;28;20022;-72
2022/09/15 11:28:10;;;;;;;0.40;0.40;;;21.60;58.80;;;;;;6219404;28;20152;-72
2022/09/15 11:31:28;;;;;;;1.38;0.60;;;21.60;58.80;;;;;;6219076;28;20053;-73
2022/09/15 11:34:53;;;;;;;0.75;0.60;;;21.60;58.90;;;;;;6219082;28;20500;-72
2022/09/15 11:37:58;;;;;;;0.50;0.50;;;21.60;58.80;;;;;;6218987;28;20055;-72
2022/09/15 11:41:11;;;;;;;0.70;0.50;;;21.60;59.00;;;;;;6223059;28;20061;-73
2022/09/15 11:44:28;;;;;;;0.70;0.50;;;21.60;58.90;;;;;;6218435;28;20068;-72
2022/09/15 11:47:43;;;;;;;0.63;0.47;;;21.60;58.90;;;;;;6218668;28;20105;-72
2022/09/15 11:50:47;;;;;;;0.88;0.57;;;21.60;59.00;;;;;;6223153;28;20026;-72
2022/09/15 11:54:02;;;;;;;0.60;0.50;;;21.60;58.80;;;;;;6218432;28;20026;-72
2022/09/15 11:57:03;;;;;;;;;;;21.60;58.80;;;;;;6219443;28;20045;-72
2022/09/15 12:00:12;;;;;;;0.75;0.50;;;21.60;58.70;;;;;;6218499;28;19913;-73
2022/09/15 12:03:22;;;;;;;1.10;0.50;;;21.60;58.80;;;;;;6218219;28;20017;-72
2022/09/15 12:06:28;;;;;;;0.90;0.60;;;21.60;58.60;;;;;;6218445;28;20022;-72
2022/09/15 12:09:29;;;;;;;1.50;0.60;;;21.60;58.80;;;;;;6218152;28;20029;-72
2022/09/15 12:12:31;;;;;;;0.82;0.40;;;21.60;58.70;;;;;;6218540;28;20026;-72
2022/09/15 12:15:32;;;;;;;0.55;0.40;;;21.60;58.60;;;;;;6234935;27;20038;-73
2022/09/15 12:18:41;;;;;;;1.20;0.68;;;21.60;58.70;;;;;;6217827;28;20022;-72
2022/09/15 12:21:53;;;;;;;1.95;0.65;;;21.60;58.60;;;;;;6218080;28;20507;-72
2022/09/15 12:25:20;;;;;;;2.75;0.50;;;21.60;58.80;;;;;;6217020;28;20026;-72
2022/09/15 12:28:21;;;;;;;0.57;0.50;;;21.60;58.90;;;;;;6224082;28;20074;-72
2022/09/15 12:31:24;;;;;;;1.42;0.63;;;21.60;58.90;;;;;;6217978;28;20514;-72
2022/09/15 12:34:37;;;;;;;2.17;0.90;;;21.60;58.90;;;;;;6217713;28;20099;-72
2022/09/15 12:37:47;;;;;;;0.82;0.60;;;21.60;58.70;;;;;;6218135;28;20478;-72
2022/09/15 12:40:57;;;;;;;0.98;0.60;;;21.60;58.50;;;;;;6217884;28;20038;-72
2022/09/15 12:44:13;;;;;;;0.73;0.50;;;21.60;58.50;;;;;;6217745;28;20050;-72
2022/09/15 12:47:30;;;;;;;1.17;0.70;;;21.60;58.60;;;;;;6217667;28;20030;-72
2022/09/15 12:50:41;;;;;;;0.65;0.45;;;21.60;58.70;;;;;;6217499;28;20488;-72
2022/09/15 12:53:53;;;;;;;0.90;0.55;;;21.60;58.80;;;;;;6217936;28;20087;-72
2022/09/15 12:56:55;;;;;;;0.80;0.60;;;21.60;58.70;;;;;;6217700;28;20033;-72
2022/09/15 13:00:15;;;;;;;0.65;0.47;;;21.60;59.20;;;;;;6217077;28;20083;-72
2022/09/15 13:03:27;;;;;;;1.10;0.50;;;21.60;58.70;;;;;;6217578;28;20018;-72
2022/09/15 13:06:29;;;;;;;0.88;0.70;;;21.60;58.60;;;;;;6217574;28;20361;-72
2022/09/15 13:09:43;;;;;;;0.80;0.55;;;21.60;58.50;;;;;;6217679;28;20018;-72
2022/09/15 13:12:53;;;;;;;0.75;0.50;;;21.60;58.60;;;;;;6216517;28;20018;-73
2022/09/15 13:15:55;;;;;;;1.23;0.57;;;21.60;59.00;;;;;;6222929;28;20115;-72
2022/09/15 13:19:11;;;;;;;0.50;0.50;;;21.60;58.80;;;;;;6217461;28;20029;-73
2022/09/15 13:22:11;;;;;;;;;;;21.60;58.70;;;;;;6197360;28;20042;-73
2022/09/15 13:25:15;;;;;;;0.60;0.60;;;21.60;59.20;;;;;;6206110;28;20416;-72
2022/09/15 13:28:17;;;;;;;0.82;0.60;;;21.60;59.00;;;;;;6221130;28;20080;-72
2022/09/15 13:31:42;;;;;;;0.80;0.50;;;21.60;58.50;;;;;;6221328;28;20022;-72
2022/09/15 13:35:11;;;;;;;0.52;0.50;;;21.60;58.70;;;;;;6227645;28;20043;-72
2022/09/15 13:38:28;;;;;;;0.70;0.50;;;21.60;58.50;;;;;;6222390;28;20628;-72
2022/09/15 13:41:47;;;;;;;0.88;0.52;;;21.60;58.50;;;;;;6220699;28;20030;-72
2022/09/15 13:45:10;;;;;;;0.45;0.40;;;21.60;58.60;;;;;;6220849;28;20045;-72
2022/09/15 13:48:26;;;;;;;1.25;0.80;;;21.60;58.40;;;;;;6220745;28;20079;-72
2022/09/15 13:51:28;;;;;;;;;;;21.60;58.50;;;;;;6220973;28;20480;-72
2022/09/15 13:54:29;;;;;;;1.05;0.70;;;21.60;58.50;;;;;;6221144;28;19905;-72
2022/09/15 13:57:29;;;;;;;1.85;0.45;;;21.60;58.50;;;;;;6220600;28;20029;-72
2022/09/15 14:00:54;;;;;;;0.90;0.70;;;21.60;58.30;;;;;;6220558;28;20041;-72
2022/09/15 14:04:04;;;;;;;1.10;0.60;;;21.60;58.60;;;;;;6220791;28;20732;-72
2022/09/15 14:07:04;;;;;;;1.00;0.57;;;21.60;58.40;;;;;;6220207;28;20029;-72
2022/09/15 14:10:06;;;;;;;1.40;0.70;;;21.60;58.40;;;;;;6220415;28;20481;-72
2022/09/15 14:13:14;;;;;;;0.95;0.50;;;21.60;58.30;;;;;;6220387;28;20030;-72
2022/09/15 14:16:33;;;;;;;1.55;0.90;;;21.60;58.50;;;;;;6220374;28;20071;-72
2022/09/15 14:19:38;;;;;;;3.53;0.50;;;21.60;58.50;;;;;;6220629;28;20120;-72
2022/09/15 14:22:39;;;;;;;1.27;0.70;;;21.60;58.50;;;;;;6220042;28;20083;-72
2022/09/15 14:25:44;;;;;;;0.90;0.55;;;21.60;58.80;;;;;;6220156;28;20124;-72
2022/09/15 14:28:59;;;;;;;0.82;0.63;;;21.60;58.50;;;;;;6224853;28;20030;-72
2022/09/15 14:32:00;;;;;;;1.48;0.60;;;21.60;58.60;;;;;;6218290;28;20087;-72
2022/09/15 14:35:06;;;;;;;1.23;0.60;;;21.60;58.60;;;;;;6219583;28;20508;-72
2022/09/15 14:38:22;;;;;;;0.73;0.55;;;21.60;58.50;;;;;;6219086;28;20056;-72
2022/09/15 14:41:23;;;;;;;0.80;0.50;;;21.60;58.50;;;;;;6222692;28;20416;-73
2022/09/15 14:44:34;;;;;;;0.63;0.52;;;21.60;58.70;;;;;;6218216;28;20037;-72
2022/09/15 14:47:37;;;;;;;3.22;0.60;;;21.60;58.40;;;;;;6216832;28;20116;-73
2022/09/15 14:50:37;;;;;;;1.83;0.60;;;21.60;58.50;;;;;;6218727;28;20018;-72
2022/09/15 14:53:40;;;;;;;0.95;0.50;;;21.60;58.50;;;;;;6217332;28;20026;-73
2022/09/15 14:56:42;;;;;;;0.52;0.50;;;21.60;58.50;;;;;;6218381;28;20022;-72
2022/09/15 14:59:48;;;;;;;1.42;0.68;;;21.60;58.60;;;;;;6218517;28;20030;-73
2022/09/15 15:03:10;;;;;;;1.27;0.63;;;21.60;58.50;;;;;;6218519;28;20030;-73
2022/09/15 15:06:30;;;;;;;1.30;0.50;;;21.60;58.50;;;;;;6218039;28;20480;-72
2022/09/15 15:10:00;;;;;;;0.63;0.60;;;21.50;58.40;;;;;;6218301;28;20057;-72
2022/09/15 15:13:06;;;;;;;1.27;0.63;;;21.50;58.40;;;;;;6218273;28;20042;-72
2022/09/15 15:16:22;;;;;;;0.52;0.50;;;21.60;58.60;;;;;;6217816;28;20450;-72
2022/09/15 15:19:38;;;;;;;0.65;0.45;;;21.60;58.60;;;;;;6217211;28;20079;-72
2022/09/15 15:22:41;;;;;;;1.17;0.63;;;21.60;58.50;;;;;;6217853;28;20091;-72
2022/09/15 15:25:42;;;;;;;0.57;0.40;;;21.60;58.60;;;;;;6218241;28;20026;-72
2022/09/15 15:28:43;;;;;;;1.10;0.73;;;21.60;58.70;;;;;;6216428;28;20122;-73
2022/09/15 15:31:43;;;;;;;0.60;0.50;;;21.60;58.60;;;;;;6218014;28;20022;-73
2022/09/15 15:35:00;;;;;;;0.98;0.60;;;21.60;58.50;;;;;;6217804;28;20052;-72
2022/09/15 15:38:24;;;;;;;0.50;0.47;;;21.60;58.70;;;;;;6217559;28;20026;-73
2022/09/15 15:41:37;;;;;;;1.08;0.55;;;21.60;58.70;;;;;;6217950;28;20030;-73
2022/09/15 15:44:56;;;;;;;0.65;0.43;;;21.60;58.60;;;;;;6160069;28;1631219;-72
2022/09/15 15:47:57;;;;;;;1.30;0.50;;;21.60;58.60;;;;;;6217504;28;20061;-72
2022/09/15 15:50:58;;;;;;;0.50;0.40;;;21.60;58.60;;;;;;6218646;28;20072;-72
2022/09/15 15:53:58;;;;;;;1.17;0.60;;;21.60;58.50;;;;;;6218146;28;20029;-72
2022/09/15 15:57:23;;;;;;;1.33;0.70;;;21.60;58.60;;;;;;6218582;28;20096;-72
2022/09/15 16:00:25;;;;;;;0.52;0.50;;;21.60;59.00;;;;;;6224848;28;20057;-72
2022/09/15 16:03:26;;;;;;;1.00;0.52;;;21.60;58.60;;;;;;6218278;28;20022;-72
2022/09/15 16:06:27;;;;;;;1.75;0.60;;;21.60;58.70;;;;;;6218708;28;20030;-72
2022/09/15 16:09:27;;;;;;;1.33;0.60;;;21.60;58.60;;;;;;6217770;28;20033;-73
2022/09/15 16:12:28;;;;;;;0.68;0.43;;;21.60;58.70;;;;;;6218241;28;20057;-73
2022/09/15 16:15:29;;;;;;;0.70;0.60;;;21.60;58.80;;;;;;6216239;28;20400;-72
2022/09/15 16:18:30;;;;;;;0.65;0.50;;;21.60;58.90;;;;;;6214929;28;20057;-72